sensor_id;sensor_type;location;lat;lon;timestamp;P1;durP1;ratioP1;P2;durP2;ratioP2
18449;SDS011;9354;50.194;7.690;2023-12-20T00:00:35;0.50;;;0.40;;
18449;SDS011;9354;50.194;7.690;2023-12-20T00:03:03;0.63;;;0.53;;
18449;SDS011;9354;50.194;7.690;2023-12-20T00:05:31;0.73;;;0.60;;
18449;SDS011;9354;50.194;7.690;2023-12-20T00:07:59;0.90;;;0.60;;
18449;SDS011;9354;50.194;7.690;2023-12-20T00:10:26;0.67;;;0.40;;
18449;SDS011;9354;50.194;7.690;2023-12-20T00:12:53;0.97;;;0.70;;
18449;SDS011;9354;50.194;7.690;2023-12-20T00:15:22;0.83;;;0.53;;
18449;SDS011;9354;50.194;7.690;2023-12-20T00:17:49;0.30;;;0.23;;
18449;SDS011;9354;50.194;7.690;2023-12-20T00:20:17;0.43;;;0.40;;
18449;SDS011;9354;50.194;7.690;2023-12-20T00:22:44;0.83;;;0.60;;
18449;SDS011;9354;50.194;7.690;2023-12-20T00:25:12;1.07;;;0.60;;
18449;SDS011;9354;50.194;7.690;2023-12-20T00:27:39;1.03;;;0.50;;
18449;SDS011;9354;50.194;7.690;2023-12-20T00:30:07;0.80;;;0.50;;
18449;SDS011;9354;50.194;7.690;2023-12-20T00:32:37;0.50;;;0.50;;
18449;SDS011;9354;50.194;7.690;2023-12-20T00:35:05;0.70;;;0.40;;
18449;SDS011;9354;50.194;7.690;2023-12-20T00:37:33;0.77;;;0.40;;
18449;SDS011;9354;50.194;7.690;2023-12-20T00:40:00;0.57;;;0.50;;
18449;SDS011;9354;50.194;7.690;2023-12-20T00:42:28;0.60;;;0.43;;
18449;SDS011;9354;50.194;7.690;2023-12-20T00:44:55;1.60;;;0.80;;
18449;SDS011;9354;50.194;7.690;2023-12-20T00:47:22;0.70;;;0.50;;
18449;SDS011;9354;50.194;7.690;2023-12-20T00:49:51;0.83;;;0.60;;
18449;SDS011;9354;50.194;7.690;2023-12-20T00:52:18;0.70;;;0.60;;
18449;SDS011;9354;50.194;7.690;2023-12-20T00:54:48;1.00;;;0.50;;
18449;SDS011;9354;50.194;7.690;2023-12-20T00:57:15;1.07;;;0.63;;
18449;SDS011;9354;50.194;7.690;2023-12-20T00:59:43;0.67;;;0.40;;
18449;SDS011;9354;50.194;7.690;2023-12-20T01:02:10;0.70;;;0.47;;
18449;SDS011;9354;50.194;7.690;2023-12-20T01:04:37;1.73;;;0.60;;
18449;SDS011;9354;50.194;7.690;2023-12-20T01:07:06;1.00;;;0.50;;
18449;SDS011;9354;50.194;7.690;2023-12-20T01:09:34;0.70;;;0.60;;
18449;SDS011;9354;50.194;7.690;2023-12-20T01:12:03;0.80;;;0.63;;
18449;SDS011;9354;50.194;7.690;2023-12-20T01:14:30;0.80;;;0.57;;
18449;SDS011;9354;50.194;7.690;2023-12-20T01:16:59;2.23;;;0.60;;
18449;SDS011;9354;50.194;7.690;2023-12-20T01:19:26;1.27;;;0.80;;
18449;SDS011;9354;50.194;7.690;2023-12-20T01:21:54;1.17;;;0.80;;
18449;SDS011;9354;50.194;7.690;2023-12-20T01:24:23;1.47;;;0.67;;
18449;SDS011;9354;50.194;7.690;2023-12-20T01:26:50;1.37;;;0.70;;
18449;SDS011;9354;50.194;7.690;2023-12-20T01:29:18;1.20;;;0.70;;
18449;SDS011;9354;50.194;7.690;2023-12-20T01:31:45;0.97;;;0.80;;
18449;SDS011;9354;50.194;7.690;2023-12-20T01:34:13;1.13;;;0.77;;
18449;SDS011;9354;50.194;7.690;2023-12-20T01:36:40;1.40;;;0.60;;
18449;SDS011;9354;50.194;7.690;2023-12-20T01:39:07;0.77;;;0.60;;
18449;SDS011;9354;50.194;7.690;2023-12-20T01:41:36;0.70;;;0.60;;
18449;SDS011;9354;50.194;7.690;2023-12-20T01:44:04;2.40;;;0.77;;
18449;SDS011;9354;50.194;7.690;2023-12-20T01:46:31;0.90;;;0.60;;
18449;SDS011;9354;50.194;7.690;2023-12-20T01:48:59;1.13;;;0.73;;
18449;SDS011;9354;50.194;7.690;2023-12-20T01:51:26;1.27;;;0.50;;
18449;SDS011;9354;50.194;7.690;2023-12-20T01:53:54;1.50;;;0.60;;
18449;SDS011;9354;50.194;7.690;2023-12-20T01:56:23;0.97;;;0.60;;
18449;SDS011;9354;50.194;7.690;2023-12-20T01:58:52;1.20;;;0.80;;
18449;SDS011;9354;50.194;7.690;2023-12-20T02:01:20;0.93;;;0.57;;
18449;SDS011;9354;50.194;7.690;2023-12-20T02:03:47;1.03;;;0.77;;
18449;SDS011;9354;50.194;7.690;2023-12-20T02:06:15;0.97;;;0.70;;
18449;SDS011;9354;50.194;7.690;2023-12-20T02:08:44;1.10;;;0.70;;
18449;SDS011;9354;50.194;7.690;2023-12-20T02:11:11;1.13;;;0.80;;
18449;SDS011;9354;50.194;7.690;2023-12-20T02:13:39;2.27;;;0.80;;
18449;SDS011;9354;50.194;7.690;2023-12-20T02:16:07;0.70;;;0.50;;
18449;SDS011;9354;50.194;7.690;2023-12-20T02:18:35;1.30;;;0.90;;
18449;SDS011;9354;50.194;7.690;2023-12-20T02:21:03;2.50;;;0.73;;
18449;SDS011;9354;50.194;7.690;2023-12-20T02:23:32;0.87;;;0.70;;
18449;SDS011;9354;50.194;7.690;2023-12-20T02:26:00;1.27;;;0.80;;
18449;SDS011;9354;50.194;7.690;2023-12-20T02:28:27;1.47;;;0.93;;
18449;SDS011;9354;50.194;7.690;2023-12-20T02:30:55;0.90;;;0.70;;
18449;SDS011;9354;50.194;7.690;2023-12-20T02:33:23;1.30;;;0.80;;
18449;SDS011;9354;50.194;7.690;2023-12-20T02:35:50;1.03;;;0.80;;
18449;SDS011;9354;50.194;7.690;2023-12-20T02:38:18;1.80;;;1.03;;
18449;SDS011;9354;50.194;7.690;2023-12-20T02:40:47;2.97;;;1.17;;
18449;SDS011;9354;50.194;7.690;2023-12-20T02:43:14;1.07;;;0.90;;
18449;SDS011;9354;50.194;7.690;2023-12-20T02:45:41;1.80;;;1.10;;
18449;SDS011;9354;50.194;7.690;2023-12-20T02:48:09;1.20;;;0.80;;
18449;SDS011;9354;50.194;7.690;2023-12-20T02:50:36;2.47;;;1.10;;
18449;SDS011;9354;50.194;7.690;2023-12-20T02:53:03;1.10;;;1.00;;
18449;SDS011;9354;50.194;7.690;2023-12-20T02:55:31;1.93;;;1.20;;
18449;SDS011;9354;50.194;7.690;2023-12-20T02:58:00;1.60;;;1.13;;
18449;SDS011;9354;50.194;7.690;2023-12-20T03:00:27;1.53;;;1.27;;
18449;SDS011;9354;50.194;7.690;2023-12-20T03:02:54;1.40;;;1.20;;
18449;SDS011;9354;50.194;7.690;2023-12-20T03:05:22;2.13;;;1.60;;
18449;SDS011;9354;50.194;7.690;2023-12-20T03:07:49;1.70;;;1.40;;
18449;SDS011;9354;50.194;7.690;2023-12-20T03:10:16;1.63;;;1.27;;
18449;SDS011;9354;50.194;7.690;2023-12-20T03:12:45;2.33;;;1.40;;
18449;SDS011;9354;50.194;7.690;2023-12-20T03:15:14;2.37;;;1.27;;
18449;SDS011;9354;50.194;7.690;2023-12-20T03:17:41;1.53;;;1.07;;
18449;SDS011;9354;50.194;7.690;2023-12-20T03:20:09;4.07;;;1.43;;
18449;SDS011;9354;50.194;7.690;2023-12-20T03:22:36;1.70;;;1.20;;
18449;SDS011;9354;50.194;7.690;2023-12-20T03:25:04;2.00;;;1.30;;
18449;SDS011;9354;50.194;7.690;2023-12-20T03:27:31;2.23;;;1.27;;
18449;SDS011;9354;50.194;7.690;2023-12-20T03:29:59;1.43;;;1.10;;
18449;SDS011;9354;50.194;7.690;2023-12-20T03:32:28;1.93;;;1.23;;
18449;SDS011;9354;50.194;7.690;2023-12-20T03:34:55;4.30;;;1.30;;
18449;SDS011;9354;50.194;7.690;2023-12-20T03:37:23;2.03;;;1.40;;
18449;SDS011;9354;50.194;7.690;2023-12-20T03:39:50;5.07;;;1.73;;
18449;SDS011;9354;50.194;7.690;2023-12-20T03:42:18;2.13;;;1.60;;
18449;SDS011;9354;50.194;7.690;2023-12-20T03:44:45;2.93;;;1.93;;
18449;SDS011;9354;50.194;7.690;2023-12-20T03:47:12;3.80;;;1.60;;
18449;SDS011;9354;50.194;7.690;2023-12-20T03:49:41;3.53;;;1.50;;
18449;SDS011;9354;50.194;7.690;2023-12-20T03:52:08;9.60;;;1.70;;
18449;SDS011;9354;50.194;7.690;2023-12-20T03:54:36;2.87;;;1.40;;
18449;SDS011;9354;50.194;7.690;2023-12-20T03:57:04;3.80;;;1.50;;
18449;SDS011;9354;50.194;7.690;2023-12-20T03:59:34;8.57;;;1.97;;
18449;SDS011;9354;50.194;7.690;2023-12-20T04:02:02;4.17;;;1.40;;
18449;SDS011;9354;50.194;7.690;2023-12-20T04:04:30;8.17;;;1.87;;
18449;SDS011;9354;50.194;7.690;2023-12-20T04:06:58;5.63;;;1.50;;
18449;SDS011;9354;50.194;7.690;2023-12-20T04:09:25;5.27;;;1.27;;
18449;SDS011;9354;50.194;7.690;2023-12-20T04:11:53;3.87;;;1.50;;
18449;SDS011;9354;50.194;7.690;2023-12-20T04:14:20;8.47;;;1.60;;
18449;SDS011;9354;50.194;7.690;2023-12-20T04:16:47;3.67;;;1.40;;
18449;SDS011;9354;50.194;7.690;2023-12-20T04:19:15;5.77;;;1.27;;
18449;SDS011;9354;50.194;7.690;2023-12-20T04:21:42;6.87;;;1.13;;
18449;SDS011;9354;50.194;7.690;2023-12-20T04:24:11;2.70;;;1.17;;
18449;SDS011;9354;50.194;7.690;2023-12-20T04:26:38;6.53;;;1.53;;
18449;SDS011;9354;50.194;7.690;2023-12-20T04:29:06;5.43;;;2.00;;
18449;SDS011;9354;50.194;7.690;2023-12-20T04:31:33;4.53;;;1.70;;
18449;SDS011;9354;50.194;7.690;2023-12-20T04:34:00;7.40;;;1.50;;
18449;SDS011;9354;50.194;7.690;2023-12-20T04:36:28;9.00;;;2.13;;
18449;SDS011;9354;50.194;7.690;2023-12-20T04:38:55;6.73;;;1.60;;
18449;SDS011;9354;50.194;7.690;2023-12-20T04:41:24;3.30;;;1.23;;
18449;SDS011;9354;50.194;7.690;2023-12-20T04:43:53;5.37;;;1.33;;
18449;SDS011;9354;50.194;7.690;2023-12-20T04:46:20;3.40;;;1.00;;
18449;SDS011;9354;50.194;7.690;2023-12-20T04:48:47;7.10;;;1.30;;
18449;SDS011;9354;50.194;7.690;2023-12-20T04:51:15;7.40;;;1.10;;
18449;SDS011;9354;50.194;7.690;2023-12-20T04:53:42;3.77;;;1.20;;
18449;SDS011;9354;50.194;7.690;2023-12-20T04:56:10;5.80;;;1.20;;
18449;SDS011;9354;50.194;7.690;2023-12-20T04:58:38;5.47;;;1.53;;
18449;SDS011;9354;50.194;7.690;2023-12-20T05:01:06;5.07;;;1.30;;
18449;SDS011;9354;50.194;7.690;2023-12-20T05:03:33;2.83;;;1.20;;
18449;SDS011;9354;50.194;7.690;2023-12-20T05:06:01;6.60;;;1.20;;
18449;SDS011;9354;50.194;7.690;2023-12-20T05:08:28;5.47;;;1.33;;
18449;SDS011;9354;50.194;7.690;2023-12-20T05:10:56;4.33;;;1.40;;
18449;SDS011;9354;50.194;7.690;2023-12-20T05:13:23;4.87;;;1.47;;
18449;SDS011;9354;50.194;7.690;2023-12-20T05:15:52;3.47;;;1.20;;
18449;SDS011;9354;50.194;7.690;2023-12-20T05:18:20;7.30;;;1.73;;
18449;SDS011;9354;50.194;7.690;2023-12-20T05:20:48;7.70;;;1.37;;
18449;SDS011;9354;50.194;7.690;2023-12-20T05:23:16;5.87;;;1.30;;
18449;SDS011;9354;50.194;7.690;2023-12-20T05:25:44;8.03;;;1.10;;
18449;SDS011;9354;50.194;7.690;2023-12-20T05:28:11;3.20;;;1.33;;
18449;SDS011;9354;50.194;7.690;2023-12-20T05:30:38;7.63;;;1.33;;
18449;SDS011;9354;50.194;7.690;2023-12-20T05:33:07;5.03;;;1.40;;
18449;SDS011;9354;50.194;7.690;2023-12-20T05:35:35;8.00;;;1.20;;
18449;SDS011;9354;50.194;7.690;2023-12-20T05:38:02;5.50;;;1.10;;
18449;SDS011;9354;50.194;7.690;2023-12-20T05:40:30;10.17;;;1.30;;
18449;SDS011;9354;50.194;7.690;2023-12-20T05:42:57;9.43;;;1.37;;
18449;SDS011;9354;50.194;7.690;2023-12-20T05:45:24;6.13;;;1.20;;
18449;SDS011;9354;50.194;7.690;2023-12-20T05:47:52;11.43;;;1.43;;
18449;SDS011;9354;50.194;7.690;2023-12-20T05:50:21;4.47;;;1.10;;
18449;SDS011;9354;50.194;7.690;2023-12-20T05:52:48;6.07;;;1.13;;
18449;SDS011;9354;50.194;7.690;2023-12-20T05:55:16;5.30;;;1.43;;
18449;SDS011;9354;50.194;7.690;2023-12-20T05:57:43;6.67;;;1.17;;
18449;SDS011;9354;50.194;7.690;2023-12-20T06:00:11;2.57;;;1.10;;
18449;SDS011;9354;50.194;7.690;2023-12-20T06:02:39;3.10;;;0.93;;
18449;SDS011;9354;50.194;7.690;2023-12-20T06:05:06;7.37;;;1.30;;
18449;SDS011;9354;50.194;7.690;2023-12-20T06:07:35;3.77;;;1.10;;
18449;SDS011;9354;50.194;7.690;2023-12-20T06:10:03;3.63;;;1.13;;
18449;SDS011;9354;50.194;7.690;2023-12-20T06:12:32;8.60;;;1.47;;
18449;SDS011;9354;50.194;7.690;2023-12-20T06:15:01;4.70;;;1.20;;
18449;SDS011;9354;50.194;7.690;2023-12-20T06:17:29;4.33;;;1.10;;
18449;SDS011;9354;50.194;7.690;2023-12-20T06:19:57;7.70;;;1.07;;
18449;SDS011;9354;50.194;7.690;2023-12-20T06:22:24;10.10;;;1.03;;
18449;SDS011;9354;50.194;7.690;2023-12-20T06:24:53;4.40;;;1.23;;
18449;SDS011;9354;50.194;7.690;2023-12-20T06:27:20;6.27;;;1.33;;
18449;SDS011;9354;50.194;7.690;2023-12-20T06:29:48;9.83;;;1.17;;
18449;SDS011;9354;50.194;7.690;2023-12-20T06:32:15;4.17;;;1.07;;
18449;SDS011;9354;50.194;7.690;2023-12-20T06:34:42;5.67;;;1.30;;
18449;SDS011;9354;50.194;7.690;2023-12-20T06:37:10;4.13;;;1.97;;
18449;SDS011;9354;50.194;7.690;2023-12-20T06:39:37;10.77;;;1.47;;
18449;SDS011;9354;50.194;7.690;2023-12-20T06:42:06;5.23;;;1.30;;
18449;SDS011;9354;50.194;7.690;2023-12-20T06:44:33;3.63;;;1.20;;
18449;SDS011;9354;50.194;7.690;2023-12-20T06:47:01;5.93;;;1.27;;
18449;SDS011;9354;50.194;7.690;2023-12-20T06:49:28;6.53;;;1.20;;
18449;SDS011;9354;50.194;7.690;2023-12-20T06:51:55;6.10;;;1.17;;
18449;SDS011;9354;50.194;7.690;2023-12-20T06:54:23;5.40;;;1.20;;
18449;SDS011;9354;50.194;7.690;2023-12-20T06:56:50;5.57;;;1.07;;
18449;SDS011;9354;50.194;7.690;2023-12-20T06:59:19;4.70;;;1.10;;
18449;SDS011;9354;50.194;7.690;2023-12-20T07:01:47;5.63;;;1.10;;
18449;SDS011;9354;50.194;7.690;2023-12-20T07:04:15;7.67;;;1.20;;
18449;SDS011;9354;50.194;7.690;2023-12-20T07:06:45;10.60;;;0.90;;
18449;SDS011;9354;50.194;7.690;2023-12-20T07:09:13;4.67;;;1.17;;
18449;SDS011;9354;50.194;7.690;2023-12-20T07:11:40;9.47;;;1.27;;
18449;SDS011;9354;50.194;7.690;2023-12-20T07:14:08;8.40;;;1.60;;
18449;SDS011;9354;50.194;7.690;2023-12-20T07:16:37;6.53;;;1.17;;
18449;SDS011;9354;50.194;7.690;2023-12-20T07:19:04;8.27;;;1.20;;
18449;SDS011;9354;50.194;7.690;2023-12-20T07:21:32;6.40;;;1.27;;
18449;SDS011;9354;50.194;7.690;2023-12-20T07:23:59;5.50;;;1.30;;
18449;SDS011;9354;50.194;7.690;2023-12-20T07:26:26;6.33;;;1.30;;
18449;SDS011;9354;50.194;7.690;2023-12-20T07:28:54;8.60;;;1.20;;
18449;SDS011;9354;50.194;7.690;2023-12-20T07:31:21;8.47;;;1.43;;
18449;SDS011;9354;50.194;7.690;2023-12-20T07:33:51;8.80;;;1.40;;
18449;SDS011;9354;50.194;7.690;2023-12-20T07:36:19;10.87;;;1.57;;
18449;SDS011;9354;50.194;7.690;2023-12-20T07:38:46;9.23;;;1.80;;
18449;SDS011;9354;50.194;7.690;2023-12-20T07:41:14;8.17;;;1.37;;
18449;SDS011;9354;50.194;7.690;2023-12-20T07:43:42;7.83;;;1.53;;
18449;SDS011;9354;50.194;7.690;2023-12-20T07:46:10;8.90;;;1.53;;
18449;SDS011;9354;50.194;7.690;2023-12-20T07:48:37;5.47;;;1.67;;
18449;SDS011;9354;50.194;7.690;2023-12-20T07:51:06;12.87;;;2.47;;
18449;SDS011;9354;50.194;7.690;2023-12-20T07:53:35;7.83;;;1.50;;
18449;SDS011;9354;50.194;7.690;2023-12-20T07:56:12;8.30;;;1.73;;
18449;SDS011;9354;50.194;7.690;2023-12-20T07:58:40;7.27;;;1.60;;
18449;SDS011;9354;50.194;7.690;2023-12-20T08:01:08;6.63;;;1.57;;
18449;SDS011;9354;50.194;7.690;2023-12-20T08:03:35;5.73;;;1.70;;
18449;SDS011;9354;50.194;7.690;2023-12-20T08:06:03;9.17;;;2.07;;
18449;SDS011;9354;50.194;7.690;2023-12-20T08:08:32;9.10;;;1.97;;
18449;SDS011;9354;50.194;7.690;2023-12-20T08:11:00;9.27;;;2.30;;
18449;SDS011;9354;50.194;7.690;2023-12-20T08:13:28;6.93;;;2.00;;
18449;SDS011;9354;50.194;7.690;2023-12-20T08:15:55;8.23;;;1.77;;
18449;SDS011;9354;50.194;7.690;2023-12-20T08:18:22;18.23;;;2.37;;
18449;SDS011;9354;50.194;7.690;2023-12-20T08:20:50;8.67;;;2.20;;
18449;SDS011;9354;50.194;7.690;2023-12-20T08:23:18;10.77;;;2.60;;
18449;SDS011;9354;50.194;7.690;2023-12-20T08:25:47;6.53;;;2.00;;
18449;SDS011;9354;50.194;7.690;2023-12-20T08:28:15;8.67;;;2.10;;
18449;SDS011;9354;50.194;7.690;2023-12-20T08:30:42;7.93;;;2.50;;
18449;SDS011;9354;50.194;7.690;2023-12-20T08:33:10;8.57;;;2.73;;
18449;SDS011;9354;50.194;7.690;2023-12-20T08:35:38;11.70;;;2.97;;
18449;SDS011;9354;50.194;7.690;2023-12-20T08:38:06;8.77;;;2.67;;
18449;SDS011;9354;50.194;7.690;2023-12-20T08:40:33;11.43;;;2.73;;
18449;SDS011;9354;50.194;7.690;2023-12-20T08:43:02;13.73;;;2.43;;
18449;SDS011;9354;50.194;7.690;2023-12-20T08:45:30;13.37;;;2.37;;
18449;SDS011;9354;50.194;7.690;2023-12-20T08:47:57;12.93;;;3.63;;
18449;SDS011;9354;50.194;7.690;2023-12-20T08:50:25;7.23;;;2.60;;
18449;SDS011;9354;50.194;7.690;2023-12-20T08:52:52;9.37;;;3.30;;
18449;SDS011;9354;50.194;7.690;2023-12-20T08:55:20;10.40;;;2.90;;
18449;SDS011;9354;50.194;7.690;2023-12-20T08:57:47;13.10;;;3.23;;
18449;SDS011;9354;50.194;7.690;2023-12-20T09:00:18;15.43;;;4.10;;
18449;SDS011;9354;50.194;7.690;2023-12-20T09:02:46;9.50;;;2.93;;
18449;SDS011;9354;50.194;7.690;2023-12-20T09:05:13;15.23;;;3.90;;
18449;SDS011;9354;50.194;7.690;2023-12-20T09:07:41;11.87;;;3.87;;
18449;SDS011;9354;50.194;7.690;2023-12-20T09:10:08;9.60;;;3.07;;
18449;SDS011;9354;50.194;7.690;2023-12-20T09:12:35;13.23;;;2.97;;
18449;SDS011;9354;50.194;7.690;2023-12-20T09:15:05;10.73;;;2.33;;
18449;SDS011;9354;50.194;7.690;2023-12-20T09:17:34;7.30;;;2.43;;
18449;SDS011;9354;50.194;7.690;2023-12-20T09:20:02;13.63;;;4.00;;
18449;SDS011;9354;50.194;7.690;2023-12-20T09:22:32;14.13;;;5.03;;
18449;SDS011;9354;50.194;7.690;2023-12-20T09:25:00;15.10;;;3.90;;
18449;SDS011;9354;50.194;7.690;2023-12-20T09:27:27;15.03;;;4.03;;
18449;SDS011;9354;50.194;7.690;2023-12-20T09:29:55;17.87;;;5.67;;
18449;SDS011;9354;50.194;7.690;2023-12-20T09:32:22;11.17;;;3.60;;
18449;SDS011;9354;50.194;7.690;2023-12-20T09:34:51;9.40;;;3.30;;
18449;SDS011;9354;50.194;7.690;2023-12-20T09:37:18;9.67;;;3.10;;
18449;SDS011;9354;50.194;7.690;2023-12-20T09:39:45;10.43;;;2.50;;
18449;SDS011;9354;50.194;7.690;2023-12-20T09:42:13;11.87;;;2.90;;
18449;SDS011;9354;50.194;7.690;2023-12-20T09:44:47;8.13;;;2.70;;
18449;SDS011;9354;50.194;7.690;2023-12-20T09:47:15;17.73;;;3.57;;
18449;SDS011;9354;50.194;7.690;2023-12-20T09:49:46;10.57;;;3.40;;
18449;SDS011;9354;50.194;7.690;2023-12-20T09:52:15;21.03;;;3.73;;
18449;SDS011;9354;50.194;7.690;2023-12-20T09:54:47;6.63;;;2.10;;
18449;SDS011;9354;50.194;7.690;2023-12-20T09:57:18;10.03;;;2.17;;
18449;SDS011;9354;50.194;7.690;2023-12-20T09:59:45;8.53;;;2.00;;
18449;SDS011;9354;50.194;7.690;2023-12-20T10:02:13;14.37;;;2.20;;
18449;SDS011;9354;50.194;7.690;2023-12-20T10:04:41;9.87;;;2.83;;
18449;SDS011;9354;50.194;7.690;2023-12-20T10:07:14;6.57;;;2.40;;
18449;SDS011;9354;50.194;7.690;2023-12-20T10:09:43;11.17;;;2.67;;
18449;SDS011;9354;50.194;7.690;2023-12-20T10:12:12;9.37;;;1.93;;
18449;SDS011;9354;50.194;7.690;2023-12-20T10:14:39;6.17;;;2.03;;
18449;SDS011;9354;50.194;7.690;2023-12-20T10:17:07;9.73;;;2.17;;
18449;SDS011;9354;50.194;7.690;2023-12-20T10:19:34;10.27;;;2.00;;
18449;SDS011;9354;50.194;7.690;2023-12-20T10:22:03;11.97;;;1.80;;
18449;SDS011;9354;50.194;7.690;2023-12-20T10:24:33;10.43;;;2.30;;
18449;SDS011;9354;50.194;7.690;2023-12-20T10:27:03;7.80;;;2.10;;
18449;SDS011;9354;50.194;7.690;2023-12-20T10:29:32;7.57;;;1.80;;
18449;SDS011;9354;50.194;7.690;2023-12-20T10:32:05;11.33;;;2.10;;
18449;SDS011;9354;50.194;7.690;2023-12-20T10:34:49;7.70;;;1.97;;
18449;SDS011;9354;50.194;7.690;2023-12-20T10:37:17;7.47;;;1.97;;
18449;SDS011;9354;50.194;7.690;2023-12-20T10:39:45;11.67;;;2.23;;
18449;SDS011;9354;50.194;7.690;2023-12-20T10:42:16;10.47;;;3.27;;
18449;SDS011;9354;50.194;7.690;2023-12-20T10:44:44;8.37;;;2.23;;
18449;SDS011;9354;50.194;7.690;2023-12-20T10:47:13;12.13;;;2.00;;
18449;SDS011;9354;50.194;7.690;2023-12-20T10:49:40;11.07;;;2.00;;
18449;SDS011;9354;50.194;7.690;2023-12-20T10:52:09;11.70;;;1.73;;
18449;SDS011;9354;50.194;7.690;2023-12-20T10:54:39;5.50;;;2.00;;
18449;SDS011;9354;50.194;7.690;2023-12-20T10:57:08;10.60;;;1.93;;
18449;SDS011;9354;50.194;7.690;2023-12-20T10:59:36;6.47;;;2.10;;
18449;SDS011;9354;50.194;7.690;2023-12-20T11:02:04;9.97;;;2.13;;
18449;SDS011;9354;50.194;7.690;2023-12-20T11:04:36;8.10;;;2.00;;
18449;SDS011;9354;50.194;7.690;2023-12-20T11:07:12;9.33;;;2.53;;
18449;SDS011;9354;50.194;7.690;2023-12-20T11:09:45;9.40;;;2.10;;
18449;SDS011;9354;50.194;7.690;2023-12-20T11:12:23;7.50;;;1.93;;
18449;SDS011;9354;50.194;7.690;2023-12-20T11:14:59;12.30;;;1.70;;
18449;SDS011;9354;50.194;7.690;2023-12-20T11:17:29;8.27;;;2.30;;
18449;SDS011;9354;50.194;7.690;2023-12-20T11:20:05;10.50;;;2.77;;
18449;SDS011;9354;50.194;7.690;2023-12-20T11:22:37;5.03;;;2.00;;
18449;SDS011;9354;50.194;7.690;2023-12-20T11:25:08;7.10;;;1.77;;
18449;SDS011;9354;50.194;7.690;2023-12-20T11:27:40;11.03;;;2.60;;
18449;SDS011;9354;50.194;7.690;2023-12-20T11:30:09;8.83;;;2.60;;
18449;SDS011;9354;50.194;7.690;2023-12-20T11:32:37;9.03;;;2.30;;
18449;SDS011;9354;50.194;7.690;2023-12-20T11:35:17;11.30;;;2.10;;
18449;SDS011;9354;50.194;7.690;2023-12-20T11:37:46;10.03;;;2.80;;
18449;SDS011;9354;50.194;7.690;2023-12-20T11:40:14;11.13;;;2.50;;
18449;SDS011;9354;50.194;7.690;2023-12-20T11:42:44;13.23;;;2.73;;
18449;SDS011;9354;50.194;7.690;2023-12-20T11:45:13;10.10;;;2.60;;
18449;SDS011;9354;50.194;7.690;2023-12-20T11:47:42;14.97;;;2.43;;
18449;SDS011;9354;50.194;7.690;2023-12-20T11:50:10;11.63;;;3.27;;
18449;SDS011;9354;50.194;7.690;2023-12-20T11:52:38;11.03;;;2.70;;
18449;SDS011;9354;50.194;7.690;2023-12-20T11:55:05;8.47;;;2.30;;
18449;SDS011;9354;50.194;7.690;2023-12-20T11:57:33;9.63;;;2.67;;
18449;SDS011;9354;50.194;7.690;2023-12-20T12:00:02;7.10;;;2.10;;
18449;SDS011;9354;50.194;7.690;2023-12-20T12:02:30;7.00;;;2.30;;
18449;SDS011;9354;50.194;7.690;2023-12-20T12:04:59;9.77;;;2.97;;
18449;SDS011;9354;50.194;7.690;2023-12-20T12:07:26;10.87;;;2.07;;
18449;SDS011;9354;50.194;7.690;2023-12-20T12:09:54;10.63;;;2.53;;
18449;SDS011;9354;50.194;7.690;2023-12-20T12:12:21;9.77;;;2.27;;
18449;SDS011;9354;50.194;7.690;2023-12-20T12:14:50;9.00;;;2.27;;
18449;SDS011;9354;50.194;7.690;2023-12-20T12:17:19;8.77;;;1.80;;
18449;SDS011;9354;50.194;7.690;2023-12-20T12:19:47;8.80;;;2.37;;
18449;SDS011;9354;50.194;7.690;2023-12-20T12:22:14;7.43;;;2.20;;
18449;SDS011;9354;50.194;7.690;2023-12-20T12:24:42;10.60;;;2.60;;
18449;SDS011;9354;50.194;7.690;2023-12-20T12:27:11;10.33;;;2.00;;
18449;SDS011;9354;50.194;7.690;2023-12-20T12:29:39;6.07;;;2.23;;
18449;SDS011;9354;50.194;7.690;2023-12-20T12:32:07;6.17;;;2.60;;
18449;SDS011;9354;50.194;7.690;2023-12-20T12:34:36;8.50;;;2.20;;
18449;SDS011;9354;50.194;7.690;2023-12-20T12:37:04;12.10;;;2.20;;
18449;SDS011;9354;50.194;7.690;2023-12-20T12:39:31;7.07;;;2.23;;
18449;SDS011;9354;50.194;7.690;2023-12-20T12:41:58;8.77;;;2.13;;
18449;SDS011;9354;50.194;7.690;2023-12-20T12:44:26;11.00;;;2.27;;
18449;SDS011;9354;50.194;7.690;2023-12-20T12:46:53;9.17;;;1.97;;
18449;SDS011;9354;50.194;7.690;2023-12-20T12:49:22;9.13;;;2.30;;
18449;SDS011;9354;50.194;7.690;2023-12-20T12:51:50;14.07;;;2.33;;
18449;SDS011;9354;50.194;7.690;2023-12-20T12:54:18;5.73;;;2.10;;
18449;SDS011;9354;50.194;7.690;2023-12-20T12:56:45;10.27;;;2.00;;
18449;SDS011;9354;50.194;7.690;2023-12-20T12:59:13;13.43;;;2.57;;
18449;SDS011;9354;50.194;7.690;2023-12-20T13:01:40;15.23;;;3.47;;
18449;SDS011;9354;50.194;7.690;2023-12-20T13:04:08;14.20;;;4.43;;
18449;SDS011;9354;50.194;7.690;2023-12-20T13:06:36;22.03;;;5.30;;
18449;SDS011;9354;50.194;7.690;2023-12-20T13:09:05;12.87;;;3.60;;
18449;SDS011;9354;50.194;7.690;2023-12-20T13:11:35;12.50;;;3.20;;
18449;SDS011;9354;50.194;7.690;2023-12-20T13:14:02;6.70;;;2.53;;
18449;SDS011;9354;50.194;7.690;2023-12-20T13:16:30;10.37;;;2.57;;
18449;SDS011;9354;50.194;7.690;2023-12-20T13:18:57;10.93;;;2.77;;
18449;SDS011;9354;50.194;7.690;2023-12-20T13:21:25;16.63;;;2.47;;
18449;SDS011;9354;50.194;7.690;2023-12-20T13:23:52;9.47;;;2.10;;
18449;SDS011;9354;50.194;7.690;2023-12-20T13:26:21;11.17;;;2.27;;
18449;SDS011;9354;50.194;7.690;2023-12-20T13:28:49;9.50;;;2.17;;
18449;SDS011;9354;50.194;7.690;2023-12-20T13:31:16;9.00;;;2.10;;
18449;SDS011;9354;50.194;7.690;2023-12-20T13:33:44;10.60;;;2.63;;
18449;SDS011;9354;50.194;7.690;2023-12-20T13:36:11;8.87;;;1.80;;
18449;SDS011;9354;50.194;7.690;2023-12-20T13:38:39;10.43;;;1.97;;
18449;SDS011;9354;50.194;7.690;2023-12-20T13:41:06;13.07;;;2.17;;
18449;SDS011;9354;50.194;7.690;2023-12-20T13:43:35;8.73;;;2.13;;
18449;SDS011;9354;50.194;7.690;2023-12-20T13:46:02;11.60;;;2.60;;
18449;SDS011;9354;50.194;7.690;2023-12-20T13:48:30;5.87;;;1.50;;
18449;SDS011;9354;50.194;7.690;2023-12-20T13:50:57;4.20;;;1.40;;
18449;SDS011;9354;50.194;7.690;2023-12-20T13:53:25;4.77;;;2.00;;
18449;SDS011;9354;50.194;7.690;2023-12-20T13:55:54;5.50;;;1.53;;
18449;SDS011;9354;50.194;7.690;2023-12-20T13:58:21;6.17;;;1.30;;
18449;SDS011;9354;50.194;7.690;2023-12-20T14:00:50;7.47;;;1.33;;
18449;SDS011;9354;50.194;7.690;2023-12-20T14:03:17;8.97;;;1.57;;
18449;SDS011;9354;50.194;7.690;2023-12-20T14:05:45;7.63;;;1.40;;
18449;SDS011;9354;50.194;7.690;2023-12-20T14:08:12;4.80;;;1.30;;
18449;SDS011;9354;50.194;7.690;2023-12-20T14:10:40;8.33;;;1.63;;
18449;SDS011;9354;50.194;7.690;2023-12-20T14:13:07;6.77;;;1.57;;
18449;SDS011;9354;50.194;7.690;2023-12-20T14:15:34;7.03;;;2.03;;
18449;SDS011;9354;50.194;7.690;2023-12-20T14:18:04;8.13;;;1.47;;
18449;SDS011;9354;50.194;7.690;2023-12-20T14:20:33;9.07;;;1.70;;
18449;SDS011;9354;50.194;7.690;2023-12-20T14:23:01;11.53;;;2.13;;
18449;SDS011;9354;50.194;7.690;2023-12-20T14:25:28;4.57;;;1.23;;
18449;SDS011;9354;50.194;7.690;2023-12-20T14:27:56;6.83;;;1.43;;
18449;SDS011;9354;50.194;7.690;2023-12-20T14:30:25;7.57;;;1.50;;
18449;SDS011;9354;50.194;7.690;2023-12-20T14:32:52;9.87;;;1.77;;
18449;SDS011;9354;50.194;7.690;2023-12-20T14:35:21;7.30;;;1.60;;
18449;SDS011;9354;50.194;7.690;2023-12-20T14:37:48;4.20;;;1.30;;
18449;SDS011;9354;50.194;7.690;2023-12-20T14:40:16;10.97;;;1.97;;
18449;SDS011;9354;50.194;7.690;2023-12-20T14:42:43;8.97;;;2.33;;
18449;SDS011;9354;50.194;7.690;2023-12-20T14:45:11;10.77;;;3.17;;
18449;SDS011;9354;50.194;7.690;2023-12-20T14:47:39;17.20;;;3.03;;
18449;SDS011;9354;50.194;7.690;2023-12-20T14:50:07;11.97;;;3.23;;
18449;SDS011;9354;50.194;7.690;2023-12-20T14:52:37;8.83;;;2.60;;
18449;SDS011;9354;50.194;7.690;2023-12-20T14:55:05;14.27;;;2.93;;
18449;SDS011;9354;50.194;7.690;2023-12-20T14:57:32;10.93;;;2.40;;
18449;SDS011;9354;50.194;7.690;2023-12-20T15:00:00;12.40;;;3.10;;
18449;SDS011;9354;50.194;7.690;2023-12-20T15:02:27;11.23;;;3.27;;